createdAt,value
2023-03-25T00:01:26.195Z,11.90
2023-03-25T00:03:54.608Z,12.10
2023-03-25T00:06:22.635Z,12.10
2023-03-25T00:08:52.108Z,12.50
2023-03-25T00:11:20.439Z,13.00
2023-03-25T00:13:48.640Z,12.80
2023-03-25T00:16:25.845Z,12.60
2023-03-25T00:18:54.168Z,10.90
2023-03-25T00:21:23.484Z,11.60
2023-03-25T00:23:51.598Z,12.60
2023-03-25T00:26:21.572Z,11.60
2023-03-25T00:28:49.614Z,11.50
2023-03-25T00:31:19.611Z,11.90
2023-03-25T00:33:50.976Z,11.50
2023-03-25T00:36:22.764Z,10.90
2023-03-25T00:38:51.506Z,11.20
2023-03-25T00:41:27.856Z,11.40
2023-03-25T00:43:58.517Z,11.60
2023-03-25T00:46:29.028Z,11.20
2023-03-25T00:48:58.440Z,11.60
2023-03-25T00:51:31.359Z,10.90
2023-03-25T00:54:03.544Z,10.50
2023-03-25T00:56:34.232Z,10.70
2023-03-25T00:59:02.692Z,11.00
2023-03-25T01:01:31.175Z,10.50
2023-03-25T01:04:00.597Z,10.70
2023-03-25T01:06:32.543Z,10.60
2023-03-25T01:09:05.972Z,9.70
2023-03-25T01:11:35.074Z,10.40
2023-03-25T01:14:05.358Z,11.50
2023-03-25T01:16:33.830Z,10.40
2023-03-25T01:19:01.959Z,10.30
2023-03-25T01:21:34.066Z,10.30
2023-03-25T01:24:06.219Z,10.30
2023-03-25T01:26:34.701Z,10.50
2023-03-25T01:29:03.041Z,9.80
2023-03-25T01:31:32.262Z,9.90
2023-03-25T01:34:00.918Z,9.90
2023-03-25T01:36:29.761Z,10.70
2023-03-25T01:38:59.244Z,11.00
2023-03-25T01:41:42.275Z,11.10
2023-03-25T01:44:20.085Z,10.20
2023-03-25T01:46:49.880Z,10.40
2023-03-25T01:49:40.873Z,9.80
2023-03-25T01:52:21.656Z,11.10
2023-03-25T01:54:51.112Z,10.20
2023-03-25T01:57:20.454Z,10.40
2023-03-25T01:59:48.729Z,9.40
2023-03-25T02:02:20.229Z,10.70
2023-03-25T02:04:59.424Z,10.40
2023-03-25T02:07:31.176Z,10.20
2023-03-25T02:10:05.859Z,11.00
2023-03-25T02:12:34.437Z,11.10
2023-03-25T02:15:04.785Z,11.50
2023-03-25T02:17:36.610Z,9.90
2023-03-25T02:20:22.837Z,11.50
2023-03-25T02:23:10.305Z,10.30
2023-03-25T02:26:17.817Z,11.10
2023-03-25T02:28:53.121Z,11.00
2023-03-25T02:31:32.577Z,11.00
2023-03-25T02:34:32.245Z,11.10
2023-03-25T02:37:22.993Z,10.30
2023-03-25T02:40:01.038Z,10.70
2023-03-25T02:42:37.557Z,11.90
2023-03-25T02:45:13.063Z,10.80
2023-03-25T02:47:49.281Z,11.10
2023-03-25T02:50:21.670Z,11.70
2023-03-25T02:52:51.597Z,12.00
2023-03-25T02:55:22.882Z,11.20
2023-03-25T02:57:53.294Z,11.40
2023-03-25T03:00:29.203Z,11.90
2023-03-25T03:03:01.248Z,11.90
2023-03-25T03:05:32.857Z,11.50
2023-03-25T03:08:07.084Z,11.10
2023-03-25T03:11:17.057Z,10.90
2023-03-25T03:13:51.144Z,12.00
2023-03-25T03:16:41.905Z,12.50
2023-03-25T03:19:40.254Z,11.50
2023-03-25T03:22:52.967Z,11.40
2023-03-25T03:25:32.995Z,11.70
2023-03-25T03:28:11.383Z,12.60
2023-03-25T03:30:54.473Z,12.60
2023-03-25T03:33:47.539Z,12.70
2023-03-25T03:36:17.599Z,13.00
2023-03-25T03:38:57.531Z,12.80
2023-03-25T03:41:27.232Z,12.40
2023-03-25T03:44:02.914Z,12.30
2023-03-25T03:46:44.160Z,12.80
2023-03-25T03:49:17.277Z,13.30
2023-03-25T03:51:54.322Z,12.70
2023-03-25T03:54:27.122Z,11.70
2023-03-25T03:57:07.766Z,12.40
2023-03-25T03:59:53.765Z,12.70
2023-03-25T04:02:28.558Z,13.00
2023-03-25T04:05:00.996Z,12.90
2023-03-25T04:07:41.836Z,13.30
2023-03-25T04:10:22.118Z,13.30
2023-03-25T04:12:52.050Z,13.40
2023-03-25T04:15:23.009Z,12.90
2023-03-25T04:17:52.962Z,13.00
2023-03-25T04:20:24.148Z,14.00
2023-03-25T04:22:52.716Z,12.80
2023-03-25T04:25:25.431Z,13.40
2023-03-25T04:27:53.964Z,13.30
2023-03-25T04:30:23.028Z,13.20
2023-03-25T04:32:51.872Z,13.40
2023-03-25T04:35:20.460Z,13.90
2023-03-25T04:37:53.995Z,13.70
2023-03-25T04:40:22.034Z,13.70
2023-03-25T04:42:51.242Z,13.30
2023-03-25T04:45:19.501Z,13.60
2023-03-25T04:47:49.448Z,13.30
2023-03-25T04:50:26.006Z,13.70
2023-03-25T04:52:54.666Z,13.60
2023-03-25T04:55:23.944Z,13.40
2023-03-25T04:57:53.896Z,13.60
2023-03-25T05:00:25.006Z,14.90
2023-03-25T05:02:55.049Z,13.80
2023-03-25T05:05:24.862Z,13.50
2023-03-25T05:07:58.430Z,13.70
2023-03-25T05:10:29.848Z,14.00
2023-03-25T05:13:03.314Z,14.20
2023-03-25T05:15:39.364Z,14.50
2023-03-25T05:18:15.286Z,13.30
2023-03-25T05:20:51.286Z,14.70
2023-03-25T05:23:22.234Z,14.00
2023-03-25T05:25:51.422Z,14.00
2023-03-25T05:28:20.109Z,13.80
2023-03-25T05:30:48.484Z,14.10
2023-03-25T05:33:22.462Z,13.30
2023-03-25T05:35:51.208Z,13.40
2023-03-25T05:38:19.702Z,13.60
2023-03-25T05:40:48.516Z,13.80
2023-03-25T05:43:23.257Z,14.50
2023-03-25T05:45:53.058Z,13.10
2023-03-25T05:48:21.726Z,13.60
2023-03-25T05:50:50.544Z,12.90
2023-03-25T05:53:20.820Z,14.00
2023-03-25T05:55:52.728Z,15.00
2023-03-25T05:58:25.372Z,13.40
2023-03-25T06:00:55.385Z,13.50
2023-03-25T06:03:26.270Z,13.60
2023-03-25T06:05:55.074Z,12.80
2023-03-25T06:08:26.549Z,13.30
2023-03-25T06:11:00.871Z,14.20
2023-03-25T06:13:34.086Z,13.40
2023-03-25T06:16:03.222Z,13.90
2023-03-25T06:18:33.536Z,13.00
2023-03-25T06:21:01.644Z,12.70
2023-03-25T06:23:30.048Z,13.10
2023-03-25T06:25:58.748Z,13.30
2023-03-25T06:28:27.123Z,12.70
2023-03-25T06:31:07.226Z,13.30
2023-03-25T06:33:50.072Z,13.60
2023-03-25T06:36:18.908Z,12.80
2023-03-25T06:38:50.855Z,13.30
2023-03-25T06:41:25.249Z,13.70
2023-03-25T06:44:16.967Z,14.10
2023-03-25T06:47:11.521Z,14.60
2023-03-25T06:49:45.321Z,14.50
2023-03-25T06:52:13.696Z,13.50
2023-03-25T06:54:42.330Z,12.50
2023-03-25T06:57:10.878Z,13.30
2023-03-25T06:59:38.983Z,13.60
2023-03-25T07:02:07.237Z,14.10
2023-03-25T07:04:35.294Z,13.90
2023-03-25T07:07:04.295Z,13.60
2023-03-25T07:09:34.309Z,12.80
2023-03-25T07:12:02.596Z,13.10
2023-03-25T07:14:31.042Z,13.20
2023-03-25T07:16:59.178Z,13.20
2023-03-25T07:19:32.284Z,13.50
2023-03-25T07:22:03.105Z,13.70
2023-03-25T07:24:32.878Z,13.70
2023-03-25T07:27:01.411Z,12.80
2023-03-25T07:29:30.562Z,13.10
2023-03-25T07:31:58.822Z,13.90
2023-03-25T07:34:31.438Z,13.10
2023-03-25T07:37:02.381Z,14.40
2023-03-25T07:39:30.477Z,13.60
2023-03-25T07:42:00.136Z,14.80
2023-03-25T07:44:46.928Z,13.80
2023-03-25T07:47:15.811Z,13.80
2023-03-25T07:49:44.764Z,13.60
2023-03-25T07:52:12.844Z,14.40
2023-03-25T07:54:43.341Z,15.00
2023-03-25T07:57:11.526Z,14.30
2023-03-25T07:59:47.821Z,14.50
2023-03-25T08:02:16.228Z,14.30
2023-03-25T08:04:44.796Z,14.10
2023-03-25T08:07:13.165Z,15.10
2023-03-25T08:09:42.933Z,14.30
2023-03-25T08:12:11.311Z,14.90
2023-03-25T08:14:43.309Z,13.30
2023-03-25T08:17:11.559Z,14.70
2023-03-25T08:19:41.789Z,15.20
2023-03-25T08:22:11.049Z,15.20
2023-03-25T08:24:39.614Z,17.40
2023-03-25T08:27:16.335Z,13.80
2023-03-25T08:32:15.525Z,14.20
2023-03-25T08:34:43.690Z,14.80
2023-03-25T08:37:13.943Z,15.30
2023-03-25T08:39:45.316Z,14.70
2023-03-25T08:42:13.813Z,14.50
2023-03-25T08:44:41.874Z,14.80
2023-03-25T08:47:09.896Z,15.30
2023-03-25T08:49:41.588Z,14.20
2023-03-25T08:52:11.448Z,13.50
2023-03-25T08:54:40.367Z,14.70
2023-03-25T08:57:09.131Z,15.60
2023-03-25T08:59:37.940Z,19.90
2023-03-25T09:02:06.453Z,16.00
2023-03-25T09:04:41.012Z,15.40
2023-03-25T09:07:12.656Z,13.40
2023-03-25T09:09:41.350Z,15.20
2023-03-25T09:12:14.130Z,15.50
2023-03-25T09:14:43.107Z,15.90
2023-03-25T09:17:11.180Z,15.10
2023-03-25T09:19:41.018Z,15.30
2023-03-25T09:22:09.352Z,16.50
2023-03-25T09:24:38.385Z,16.30
2023-03-25T09:27:07.702Z,15.20
2023-03-25T09:29:36.593Z,16.10
2023-03-25T09:32:18.726Z,14.90
2023-03-25T09:34:48.419Z,15.90
2023-03-25T09:37:16.436Z,15.40
2023-03-25T09:39:46.227Z,16.20
2023-03-25T09:42:31.184Z,15.40
2023-03-25T09:45:17.846Z,14.80
2023-03-25T09:47:53.304Z,15.20
2023-03-25T09:50:21.401Z,16.50
2023-03-25T09:52:56.279Z,16.80
2023-03-25T09:55:28.944Z,15.20
2023-03-25T09:58:24.279Z,15.30
2023-03-25T10:01:16.071Z,17.00
2023-03-25T10:03:53.391Z,15.20
2023-03-25T10:06:22.169Z,15.00
2023-03-25T10:09:00.333Z,15.70
2023-03-25T10:11:40.847Z,15.70
2023-03-25T10:14:19.860Z,17.20
2023-03-25T10:16:54.600Z,15.50
2023-03-25T10:19:57.187Z,15.60
2023-03-25T10:22:28.498Z,18.10
2023-03-25T10:25:00.976Z,16.40
2023-03-25T10:27:41.649Z,16.80
2023-03-25T10:30:23.284Z,18.10
2023-03-25T10:32:57.547Z,16.40
2023-03-25T10:35:30.069Z,16.30
2023-03-25T10:38:24.418Z,15.50
2023-03-25T10:41:11.578Z,16.00
2023-03-25T10:43:42.221Z,18.20
2023-03-25T10:46:28.852Z,16.10
2023-03-25T10:48:58.293Z,17.10
2023-03-25T10:51:28.505Z,16.90
2023-03-25T10:54:05.259Z,17.20
2023-03-25T10:56:35.763Z,17.20
2023-03-25T10:59:08.798Z,18.10
2023-03-25T11:01:38.441Z,15.90
2023-03-25T11:04:18.713Z,17.20
2023-03-25T11:06:55.482Z,18.40
2023-03-25T11:09:30.801Z,16.50
2023-03-25T11:12:05.138Z,17.00
2023-03-25T11:14:37.801Z,19.40
2023-03-25T11:17:11.941Z,18.00
2023-03-25T11:19:53.286Z,17.30
2023-03-25T11:22:29.159Z,16.10
2023-03-25T11:25:05.019Z,16.20
2023-03-25T11:27:41.085Z,17.70
2023-03-25T11:30:16.432Z,15.10
2023-03-25T11:32:46.804Z,16.00
2023-03-25T11:35:19.133Z,17.20
2023-03-25T11:37:49.372Z,17.90
2023-03-25T11:40:19.227Z,17.30
2023-03-25T11:42:52.477Z,17.50
2023-03-25T11:45:33.316Z,17.40
2023-03-25T11:48:13.395Z,16.80
2023-03-25T11:50:46.985Z,16.90
2023-03-25T11:53:16.209Z,16.30
2023-03-25T11:55:46.564Z,16.80
2023-03-25T11:58:16.103Z,16.70
2023-03-25T12:00:51.696Z,18.80
2023-03-25T12:03:23.179Z,16.80
2023-03-25T12:06:06.434Z,17.10
2023-03-25T12:08:56.662Z,16.90
2023-03-25T12:11:42.768Z,15.90
2023-03-25T12:14:32.926Z,16.80
2023-03-25T12:17:01.120Z,17.60
2023-03-25T12:19:55.086Z,16.30
2023-03-25T12:22:43.340Z,16.80
2023-03-25T12:25:35.001Z,18.20
2023-03-25T12:28:18.939Z,19.10
2023-03-25T12:31:15.614Z,16.50
2023-03-25T12:34:02.593Z,17.80
2023-03-25T12:37:06.521Z,17.70
2023-03-25T12:40:03.893Z,17.30
2023-03-25T12:42:40.467Z,18.60
2023-03-25T12:45:17.193Z,20.30
2023-03-25T12:48:06.590Z,18.80
2023-03-25T12:50:44.142Z,18.10
2023-03-25T12:53:19.688Z,19.20
2023-03-25T12:55:57.278Z,20.00
2023-03-25T12:58:50.699Z,18.10
2023-03-25T13:01:49.280Z,19.00
2023-03-25T13:04:24.477Z,19.30
2023-03-25T13:07:02.014Z,19.40
2023-03-25T13:09:45.060Z,20.10
2023-03-25T13:12:22.874Z,19.40
2023-03-25T13:14:57.589Z,20.30
2023-03-25T13:17:49.089Z,20.70
2023-03-25T13:20:17.937Z,21.10
2023-03-25T13:22:51.447Z,19.90
2023-03-25T13:25:36.908Z,19.30
2023-03-25T13:28:06.683Z,21.10
2023-03-25T13:30:37.128Z,21.70
2023-03-25T13:33:08.329Z,21.30
2023-03-25T13:35:57.921Z,22.00
2023-03-25T13:38:33.156Z,21.40
2023-03-25T13:43:56.746Z,18.00
2023-03-25T13:46:47.397Z,20.10
2023-03-25T13:49:31.040Z,20.80
2023-03-25T13:52:00.176Z,20.60
2023-03-25T13:54:35.282Z,20.30
2023-03-25T13:57:13.365Z,20.00
2023-03-25T13:59:48.073Z,20.60
2023-03-25T14:02:38.972Z,20.00
2023-03-25T14:05:32.538Z,20.80
2023-03-25T14:08:31.406Z,20.70
2023-03-25T14:11:17.673Z,21.70
2023-03-25T14:13:56.198Z,21.60
2023-03-25T14:16:29.144Z,21.80
2023-03-25T14:19:09.655Z,20.60
2023-03-25T14:21:38.466Z,20.50
2023-03-25T14:24:18.302Z,22.00
2023-03-25T14:26:52.846Z,21.20
2023-03-25T14:29:34.601Z,23.50
2023-03-25T14:32:16.597Z,22.40
2023-03-25T14:34:50.241Z,27.90
2023-03-25T14:37:21.781Z,23.30
2023-03-25T14:39:51.428Z,22.80
2023-03-25T14:42:24.308Z,22.10
2023-03-25T14:44:56.180Z,22.20
2023-03-25T14:47:32.286Z,22.00
2023-03-25T14:50:22.086Z,21.30
2023-03-25T14:52:52.079Z,22.30
2023-03-25T14:55:41.229Z,20.80
2023-03-25T14:58:26.442Z,21.30
2023-03-25T15:01:10.334Z,21.50
2023-03-25T15:03:40.476Z,23.00
2023-03-25T15:06:09.949Z,22.30
2023-03-25T15:08:39.899Z,23.60
2023-03-25T15:11:17.157Z,25.00
2023-03-25T15:13:56.191Z,25.20
2023-03-25T15:16:37.954Z,25.30
2023-03-25T15:19:13.634Z,23.70
2023-03-25T15:21:58.278Z,25.50
2023-03-25T15:24:33.486Z,24.50
2023-03-25T15:27:30.183Z,24.20
2023-03-25T15:30:25.991Z,24.20
2023-03-25T15:33:13.796Z,23.50
2023-03-25T15:36:08.635Z,23.20
2023-03-25T15:39:06.904Z,23.70
2023-03-25T15:42:13.384Z,23.30
2023-03-25T15:45:03.519Z,24.70
2023-03-25T15:47:44.644Z,26.00
2023-03-25T15:50:38.267Z,23.80
2023-03-25T15:53:32.799Z,24.40
2023-03-25T15:56:16.135Z,27.40
2023-03-25T15:59:08.353Z,27.70
2023-03-25T16:01:40.882Z,26.80
2023-03-25T16:04:12.318Z,29.80
2023-03-25T16:06:42.574Z,29.20
2023-03-25T16:09:18.164Z,28.30
2023-03-25T16:11:47.177Z,29.90
2023-03-25T16:14:21.162Z,29.20
2023-03-25T16:16:51.977Z,29.50
2023-03-25T16:19:22.664Z,28.70
2023-03-25T16:21:52.454Z,28.80
2023-03-25T16:24:23.812Z,28.70
2023-03-25T16:26:53.051Z,27.00
2023-03-25T16:29:25.060Z,27.10
2023-03-25T16:31:56.816Z,27.30
2023-03-25T16:34:25.958Z,26.20
2023-03-25T16:36:54.715Z,27.70
2023-03-25T16:39:23.178Z,27.40
2023-03-25T16:41:53.486Z,29.00
2023-03-25T16:44:22.986Z,29.60
2023-03-25T16:46:52.443Z,28.20
2023-03-25T16:49:31.846Z,29.80
2023-03-25T16:52:06.895Z,28.70
2023-03-25T16:57:16.894Z,27.80
2023-03-25T16:59:46.853Z,29.90
2023-03-25T17:02:28.536Z,31.40
2023-03-25T17:05:22.438Z,32.40
2023-03-25T17:07:56.759Z,31.10
2023-03-25T17:10:29.494Z,33.10
2023-03-25T17:13:31.871Z,33.40
2023-03-25T17:16:00.789Z,31.50
2023-03-25T17:18:30.639Z,33.90
2023-03-25T17:21:04.250Z,36.90
2023-03-25T17:23:36.353Z,33.40
2023-03-25T17:26:08.327Z,33.30
2023-03-25T17:28:41.552Z,35.30
2023-03-25T17:31:39.604Z,34.30
2023-03-25T17:34:08.432Z,32.70
2023-03-25T17:36:40.592Z,35.80
2023-03-25T17:39:24.977Z,35.20
2023-03-25T17:42:01.564Z,35.80
2023-03-25T17:44:37.449Z,34.70
2023-03-25T17:47:07.158Z,36.40
2023-03-25T17:49:37.482Z,38.90
2023-03-25T17:52:08.558Z,38.00
2023-03-25T17:54:38.900Z,35.20
2023-03-25T17:57:10.666Z,30.90
2023-03-25T17:59:38.847Z,30.30
2023-03-25T18:02:14.717Z,30.80
2023-03-25T18:04:42.984Z,29.80
2023-03-25T18:07:13.309Z,30.70
2023-03-25T18:09:42.548Z,31.90
2023-03-25T18:12:15.768Z,33.40
2023-03-25T18:14:45.058Z,34.00
2023-03-25T18:17:13.201Z,35.80
2023-03-25T18:19:47.579Z,36.30
2023-03-25T18:22:20.146Z,35.40
2023-03-25T18:24:49.184Z,36.40
2023-03-25T18:27:27.741Z,36.50
2023-03-25T18:30:29.553Z,36.00
2023-03-25T18:32:58.426Z,35.50
2023-03-25T18:35:27.308Z,36.50
2023-03-25T18:37:55.811Z,34.50
2023-03-25T18:40:27.465Z,37.80
2023-03-25T18:42:56.161Z,38.80
2023-03-25T18:45:24.918Z,37.80
2023-03-25T18:47:54.139Z,37.10
2023-03-25T18:50:30.705Z,38.10
2023-03-25T18:53:01.977Z,37.30
2023-03-25T18:55:32.371Z,38.00
2023-03-25T18:58:00.509Z,39.70
2023-03-25T19:00:48.275Z,39.50
2023-03-25T19:03:17.990Z,38.90
2023-03-25T19:05:50.419Z,37.60
2023-03-25T19:08:23.545Z,39.90
2023-03-25T19:10:55.852Z,37.70
2023-03-25T19:13:34.959Z,36.60
2023-03-25T19:16:04.185Z,38.50
2023-03-25T19:18:33.249Z,37.30
2023-03-25T19:21:10.140Z,36.20
2023-03-25T19:23:41.547Z,36.60
2023-03-25T19:26:09.626Z,34.40
2023-03-25T19:28:38.593Z,32.00
2023-03-25T19:31:07.066Z,29.60
2023-03-25T19:33:35.271Z,33.20
2023-03-25T19:36:04.779Z,32.60
2023-03-25T19:38:33.194Z,31.10
2023-03-25T19:41:09.116Z,30.30
2023-03-25T19:43:38.583Z,28.30
2023-03-25T19:46:07.340Z,25.70
2023-03-25T19:48:36.264Z,27.70
2023-03-25T19:51:04.635Z,29.60
2023-03-25T19:53:34.380Z,26.20
2023-03-25T19:56:04.236Z,24.70
2023-03-25T19:58:34.832Z,24.40
2023-03-25T20:01:03.268Z,22.30
2023-03-25T20:03:33.772Z,21.40
2023-03-25T20:06:02.842Z,20.30
2023-03-25T20:08:32.326Z,19.80
2023-03-25T20:11:01.435Z,20.20
2023-03-25T20:13:36.719Z,20.80
2023-03-25T20:16:05.859Z,20.60
2023-03-25T20:18:34.346Z,21.20
2023-03-25T20:21:02.499Z,21.10
2023-03-25T20:23:30.935Z,19.20
2023-03-25T20:25:58.975Z,21.00
2023-03-25T20:28:28.089Z,18.20
2023-03-25T20:30:57.734Z,29.10
2023-03-25T20:33:28.215Z,28.50
2023-03-25T20:35:56.798Z,33.90
2023-03-25T20:38:24.950Z,32.70
2023-03-25T20:40:54.676Z,31.30
2023-03-25T20:43:23.051Z,31.00
2023-03-25T20:45:56.549Z,31.60
2023-03-25T20:48:28.296Z,30.50
2023-03-25T20:51:04.505Z,31.20
2023-03-25T20:53:34.983Z,29.10
2023-03-25T20:56:03.218Z,28.50
2023-03-25T20:58:32.250Z,29.30
2023-03-25T21:01:00.548Z,22.40
2023-03-25T21:03:29.546Z,25.80
2023-03-25T21:06:00.483Z,22.80
2023-03-25T21:08:31.900Z,23.90
2023-03-25T21:11:01.793Z,23.70
2023-03-25T21:13:34.967Z,24.00
2023-03-25T21:16:04.156Z,22.90
2023-03-25T21:18:32.398Z,23.20
2023-03-25T21:21:01.498Z,22.70
2023-03-25T21:23:31.033Z,21.70
2023-03-25T21:26:09.217Z,21.90
2023-03-25T21:28:40.914Z,21.30
2023-03-25T21:31:14.137Z,21.20
2023-03-25T21:33:45.733Z,20.00
2023-03-25T21:36:14.768Z,18.90
2023-03-25T21:38:45.407Z,18.60
2023-03-25T21:41:13.717Z,16.90
2023-03-25T21:43:42.465Z,15.30
2023-03-25T21:46:11.117Z,14.00
2023-03-25T21:48:40.218Z,13.60
2023-03-25T21:51:14.521Z,12.40
2023-03-25T21:53:46.747Z,11.90
2023-03-25T21:56:20.983Z,11.50
2023-03-25T21:58:49.020Z,10.80
2023-03-25T22:01:28.572Z,10.80
2023-03-25T22:03:57.610Z,10.70
2023-03-25T22:06:28.538Z,10.20
2023-03-25T22:08:59.452Z,10.50
2023-03-25T22:11:30.901Z,9.80
2023-03-25T22:13:59.016Z,9.20
2023-03-25T22:16:28.184Z,9.40
2023-03-25T22:18:56.549Z,8.90
2023-03-25T22:21:29.668Z,8.10
2023-03-25T22:24:05.459Z,6.90
2023-03-25T22:26:35.146Z,7.20
2023-03-25T22:29:07.800Z,7.20
2023-03-25T22:31:39.823Z,7.10
2023-03-25T22:34:12.821Z,6.70
2023-03-25T22:36:46.466Z,6.70
2023-03-25T22:39:16.719Z,6.70
2023-03-25T22:41:45.037Z,6.90
2023-03-25T22:44:17.067Z,6.10
2023-03-25T22:46:48.870Z,7.60
2023-03-25T22:49:17.363Z,6.80
2023-03-25T22:51:48.970Z,6.10
2023-03-25T22:54:17.398Z,6.70
2023-03-25T22:56:46.208Z,8.20
2023-03-25T22:59:14.781Z,7.40
2023-03-25T23:01:46.735Z,7.00
2023-03-25T23:04:14.849Z,7.00
2023-03-25T23:06:44.096Z,8.30
2023-03-25T23:09:35.157Z,7.80
2023-03-25T23:12:03.373Z,7.80
2023-03-25T23:14:32.731Z,8.60
2023-03-25T23:17:01.277Z,8.00
2023-03-25T23:19:29.798Z,7.80
2023-03-25T23:22:01.480Z,8.10
2023-03-25T23:24:30.712Z,8.40
2023-03-25T23:26:58.986Z,8.30
2023-03-25T23:29:27.214Z,9.10
2023-03-25T23:31:55.738Z,9.20
2023-03-25T23:34:23.787Z,9.70
2023-03-25T23:36:52.169Z,8.70
2023-03-25T23:39:22.864Z,9.50
2023-03-25T23:41:51.101Z,10.00
2023-03-25T23:44:19.502Z,9.80
2023-03-25T23:46:51.276Z,8.90
2023-03-25T23:49:20.302Z,9.10
2023-03-25T23:51:51.169Z,8.10
2023-03-25T23:54:19.692Z,8.90
2023-03-25T23:56:47.795Z,8.50
2023-03-25T23:59:16.333Z,8.60
